Time;durP1;ratioP1;P1;durP2;ratioP2;P2;SDS_P1;SDS_P2;PMS_P1;PMS_P2;Temp;Humidity;BMP_temperature;BMP_pressure;BME280_temperature;BME280_humidity;BME280_pressure;Samples;Min_cycle;Max_cycle;Signal;HPM_P1;HPM_P2
2022/11/30 00:01:18;;;;;;;2.17;1.98;;;5.00;99.90;;;;;;5052613;28;20433;-72
2022/11/30 00:03:45;;;;;;;2.28;2.08;;;5.00;99.90;;;;;;5052685;28;20429;-72
2022/11/30 00:06:21;;;;;;;3.00;1.90;;;5.00;99.90;;;;;;5050767;28;20430;-72
2022/11/30 00:08:53;;;;;;;4.57;2.47;;;5.00;99.90;;;;;;5052703;28;20520;-71
2022/11/30 00:11:24;;;;;;;2.13;1.83;;;5.10;99.90;;;;;;5060492;28;20448;-72
2022/11/30 00:13:51;;;;;;;2.47;2.27;;;5.10;99.90;;;;;;5064678;28;20578;-72
2022/11/30 00:16:18;;;;;;;2.50;1.83;;;5.10;99.90;;;;;;5054332;28;20435;-72
2022/11/30 00:18:45;;;;;;;3.00;2.00;;;5.10;99.90;;;;;;5052840;28;20447;-72
2022/11/30 00:21:15;;;;;;;2.43;2.00;;;5.20;99.90;;;;;;5052396;28;21039;-72
2022/11/30 00:23:44;;;;;;;2.88;1.67;;;5.20;99.90;;;;;;5052119;28;20517;-71
2022/11/30 00:26:16;;;;;;;3.25;1.42;;;5.30;99.90;;;;;;5047560;28;20433;-72
2022/11/30 00:28:48;;;;;;;1.45;1.35;;;5.30;99.90;;;;;;5046735;28;20456;-71
2022/11/30 00:31:16;;;;;;;2.22;1.90;;;5.30;99.90;;;;;;5062470;28;20526;-71
2022/11/30 00:33:44;;;;;;;2.13;1.93;;;5.30;99.90;;;;;;5052224;28;20429;-71
2022/11/30 00:36:18;;;;;;;2.38;2.17;;;5.40;99.90;;;;;;5052401;28;20444;-71
2022/11/30 00:38:45;;;;;;;8.77;2.00;;;5.40;99.90;;;;;;5038622;28;20430;-71
2022/11/30 00:41:13;;;;;;;2.15;1.85;;;5.40;99.90;;;;;;5040165;28;20464;-71
2022/11/30 00:43:40;;;;;;;2.93;1.90;;;5.40;99.90;;;;;;5051564;28;20425;-71
2022/11/30 00:46:08;;;;;;;1.70;1.60;;;5.40;99.90;;;;;;5049540;28;20453;-71
2022/11/30 00:48:39;;;;;;;4.55;2.08;;;5.40;99.90;;;;;;5044564;28;20433;-72
2022/11/30 00:51:07;;;;;;;2.13;1.55;;;5.40;99.90;;;;;;5048225;28;20476;-71
2022/11/30 00:53:33;;;;;;;2.80;1.92;;;5.40;99.90;;;;;;5038800;28;20421;-71
2022/11/30 00:56:00;;;;;;;2.00;1.90;;;5.40;99.90;;;;;;5042376;28;20437;-71
2022/11/30 00:58:27;;;;;;;2.40;2.08;;;5.40;99.90;;;;;;5037019;28;20431;-71
2022/11/30 01:01:03;;;;;;;4.18;2.22;;;5.40;99.90;;;;;;5048758;28;20421;-72
2022/11/30 01:03:35;;;;;;;3.13;1.92;;;5.40;99.90;;;;;;5057167;28;20444;-72
2022/11/30 01:06:08;;;;;;;4.32;2.10;;;5.50;99.90;;;;;;5051622;28;20850;-71
2022/11/30 01:08:35;;;;;;;3.47;2.35;;;5.50;99.90;;;;;;5051523;28;20437;-71
2022/11/30 01:11:11;;;;;;;3.40;2.10;;;5.50;99.90;;;;;;5043589;28;20508;-72
2022/11/30 01:13:38;;;;;;;2.30;1.50;;;5.50;99.90;;;;;;5048972;28;20437;-71
2022/11/30 01:16:14;;;;;;;8.15;2.83;;;5.50;99.90;;;;;;5041293;28;20438;-72
2022/11/30 01:18:41;;;;;;;5.78;2.38;;;5.50;99.90;;;;;;5061041;28;20431;-71
2022/11/30 01:21:12;;;;;;;4.18;2.28;;;5.50;99.90;;;;;;5041705;28;20433;-71
2022/11/30 01:23:42;;;;;;;5.07;2.50;;;5.50;99.90;;;;;;5042931;28;20431;-72
2022/11/30 01:26:10;;;;;;;3.35;2.42;;;5.50;99.90;;;;;;5051106;28;20524;-72
2022/11/30 01:28:36;;;;;;;5.32;2.60;;;5.50;99.90;;;;;;5052349;28;20429;-72
2022/11/30 01:31:05;;;;;;;4.43;2.72;;;5.50;99.90;;;;;;5032395;28;20435;-72
2022/11/30 01:33:33;;;;;;;2.83;1.88;;;5.50;99.90;;;;;;5032012;28;20469;-72
2022/11/30 01:36:09;;;;;;;3.15;1.60;;;5.50;99.90;;;;;;5031243;28;20423;-72
2022/11/30 01:38:44;;;;;;;3.53;2.50;;;5.50;99.90;;;;;;5044114;28;20431;-72
2022/11/30 01:41:14;;;;;;;1.70;1.60;;;5.40;99.90;;;;;;5047358;28;20425;-72
2022/11/30 01:43:47;;;;;;;1.67;1.27;;;5.40;99.90;;;;;;5053926;28;20810;-72
2022/11/30 01:46:35;;;;;;;3.83;2.03;;;5.40;99.90;;;;;;5039248;28;20427;-72
2022/11/30 01:49:08;;;;;;;2.40;1.40;;;5.40;99.90;;;;;;5040269;28;20441;-72
2022/11/30 01:51:38;;;;;;;3.88;1.60;;;5.40;99.90;;;;;;5059968;28;20436;-72
2022/11/30 01:54:08;;;;;;;2.15;1.50;;;5.40;99.90;;;;;;5050311;28;20491;-71
2022/11/30 01:56:38;;;;;;;2.13;2.03;;;5.40;99.90;;;;;;5062430;28;20439;-71
2022/11/30 01:59:05;;;;;;;2.63;1.80;;;5.40;99.90;;;;;;5047771;28;20433;-71
2022/11/30 02:01:32;;;;;;;3.63;1.83;;;5.40;99.90;;;;;;5051213;28;20453;-72
2022/11/30 02:04:05;;;;;;;3.83;2.03;;;5.40;99.90;;;;;;5063499;28;20485;-71
2022/11/30 02:06:35;;;;;;;2.60;2.00;;;5.40;99.90;;;;;;5050608;28;20455;-72
2022/11/30 02:09:02;;;;;;;1.75;1.63;;;5.40;99.90;;;;;;5059024;28;20431;-71
2022/11/30 02:11:29;;;;;;;3.47;2.20;;;5.40;99.90;;;;;;5070881;28;20428;-71
2022/11/30 02:14:04;;;;;;;2.30;2.00;;;5.40;99.90;;;;;;5070318;28;20450;-71
2022/11/30 02:16:49;;;;;;;2.40;2.03;;;5.40;99.90;;;;;;5068951;28;20922;-71
2022/11/30 02:19:46;;;;;;;3.40;2.08;;;5.40;99.90;;;;;;5030274;28;20546;-72
2022/11/30 02:22:46;;;;;;;4.05;1.77;;;5.40;99.90;;;;;;5042651;28;20474;-71
2022/11/30 02:25:51;;;;;;;2.23;1.87;;;5.50;99.90;;;;;;5028578;28;20423;-71
2022/11/30 02:28:39;;;;;;;5.47;2.95;;;5.40;99.90;;;;;;5042976;28;20430;-72
2022/11/30 02:31:13;;;;;;;2.78;1.98;;;5.40;99.90;;;;;;5050262;28;20432;-71
2022/11/30 02:33:42;;;;;;;8.07;2.53;;;5.40;99.90;;;;;;5016055;28;20479;-72
2022/11/30 02:36:09;;;;;;;4.65;2.35;;;5.40;99.90;;;;;;5047311;28;20417;-71
2022/11/30 02:38:37;;;;;;;2.92;1.92;;;5.40;99.90;;;;;;5047688;28;20429;-72
2022/11/30 02:41:04;;;;;;;4.45;2.20;;;5.40;99.90;;;;;;5030317;28;20420;-71
2022/11/30 02:43:33;;;;;;;2.55;1.85;;;5.40;99.90;;;;;;5028632;28;20431;-71
2022/11/30 02:46:13;;;;;;;2.80;2.30;;;5.30;99.90;;;;;;5049741;28;20432;-71
2022/11/30 02:48:46;;;;;;;3.03;1.98;;;5.30;99.90;;;;;;5045289;28;20469;-72
2022/11/30 02:51:18;;;;;;;2.83;1.98;;;5.20;99.90;;;;;;5047566;28;20435;-72
2022/11/30 02:53:46;;;;;;;3.55;2.20;;;5.20;99.90;;;;;;5046932;28;20429;-72
2022/11/30 02:56:13;;;;;;;5.28;2.45;;;5.20;99.90;;;;;;5039292;28;20456;-72
2022/11/30 02:58:40;;;;;;;2.58;1.42;;;5.20;99.90;;;;;;5041823;28;20456;-72
2022/11/30 03:01:07;;;;;;;2.47;1.97;;;5.20;99.90;;;;;;5029269;28;20431;-71
2022/11/30 03:03:34;;;;;;;3.53;2.10;;;5.20;99.90;;;;;;5046267;28;20429;-71
2022/11/30 03:06:00;;;;;;;2.15;1.73;;;5.10;99.90;;;;;;5041522;28;20426;-71
2022/11/30 03:08:27;;;;;;;1.55;1.42;;;5.10;99.90;;;;;;5034066;28;20425;-72
2022/11/30 03:10:54;;;;;;;1.88;1.77;;;5.10;99.90;;;;;;5049486;28;20975;-71
2022/11/30 03:13:20;;;;;;;2.10;2.00;;;5.10;99.90;;;;;;5048106;28;20425;-71
2022/11/30 03:15:47;;;;;;;2.42;1.45;;;5.10;99.90;;;;;;5049886;28;20437;-72
2022/11/30 03:18:14;;;;;;;3.42;1.42;;;5.10;99.90;;;;;;5049592;28;20465;-72
2022/11/30 03:20:41;;;;;;;3.50;2.35;;;5.20;99.90;;;;;;5044317;28;20427;-72
2022/11/30 03:23:10;;;;;;;2.70;1.95;;;5.20;99.90;;;;;;5041706;28;21072;-71
2022/11/30 03:25:37;;;;;;;4.90;1.77;;;5.30;99.90;;;;;;5048379;28;20428;-72
2022/11/30 03:28:04;;;;;;;5.20;2.25;;;5.30;99.90;;;;;;5038651;28;20431;-72
2022/11/30 03:30:31;;;;;;;1.80;1.50;;;5.40;99.90;;;;;;5043452;28;20939;-72
2022/11/30 03:32:57;;;;;;;2.22;1.90;;;5.40;99.90;;;;;;5045955;28;20429;-72
2022/11/30 03:35:24;;;;;;;2.13;1.73;;;5.50;99.90;;;;;;5047302;28;20461;-71
2022/11/30 03:37:51;;;;;;;3.85;2.95;;;5.50;99.90;;;;;;5049067;28;20432;-71
2022/11/30 03:40:17;;;;;;;4.53;3.00;;;5.50;99.90;;;;;;5049287;28;20491;-71
2022/11/30 03:42:44;;;;;;;4.95;1.83;;;5.50;99.90;;;;;;5045560;28;20428;-71
2022/11/30 03:45:11;;;;;;;4.28;2.38;;;5.50;99.90;;;;;;5048056;28;20429;-72
2022/11/30 03:47:37;;;;;;;2.90;2.22;;;5.40;99.90;;;;;;5045865;28;20504;-71
2022/11/30 03:50:05;;;;;;;2.50;1.95;;;5.40;99.90;;;;;;5048583;28;20436;-71
2022/11/30 03:52:31;;;;;;;3.63;2.10;;;5.40;99.90;;;;;;5049945;28;20428;-71
2022/11/30 03:55:00;;;;;;;3.42;2.17;;;5.30;99.90;;;;;;5036717;28;20489;-71
2022/11/30 03:57:27;;;;;;;4.45;2.58;;;5.30;99.90;;;;;;5034376;28;20433;-71
2022/11/30 03:59:54;;;;;;;2.50;2.30;;;5.30;99.90;;;;;;5045763;28;20425;-71
2022/11/30 04:02:20;;;;;;;1.80;1.42;;;5.30;99.90;;;;;;5049363;28;20433;-71
2022/11/30 04:04:50;;;;;;;3.30;2.42;;;5.20;99.90;;;;;;5064420;28;20481;-71
2022/11/30 04:07:16;;;;;;;2.72;2.53;;;5.20;99.90;;;;;;5069131;28;20420;-71
2022/11/30 04:09:43;;;;;;;4.07;1.35;;;5.20;99.90;;;;;;5028426;28;20450;-71
2022/11/30 04:12:10;;;;;;;2.13;1.75;;;5.20;99.90;;;;;;5035499;28;20450;-71
2022/11/30 04:14:36;;;;;;;2.40;2.20;;;5.20;99.90;;;;;;5037477;28;20438;-71
2022/11/30 04:17:03;;;;;;;2.70;1.52;;;5.20;99.90;;;;;;5029411;28;20434;-71
2022/11/30 04:19:30;;;;;;;2.05;1.85;;;5.20;99.90;;;;;;5051048;28;20486;-71
2022/11/30 04:22:00;;;;;;;5.63;1.50;;;5.20;99.90;;;;;;5052435;28;20429;-71
2022/11/30 04:24:26;;;;;;;4.82;1.90;;;5.30;99.90;;;;;;5051913;28;20425;-71
2022/11/30 04:26:53;;;;;;;1.00;1.00;;;5.30;99.90;;;;;;5035381;28;20969;-71
2022/11/30 04:29:20;;;;;;;2.78;1.70;;;5.30;99.90;;;;;;5050390;28;20447;-72
2022/11/30 04:31:47;;;;;;;3.63;2.05;;;5.30;99.90;;;;;;5052316;28;20435;-72
2022/11/30 04:34:13;;;;;;;3.47;1.52;;;5.30;99.90;;;;;;5071859;28;20427;-72
2022/11/30 04:36:40;;;;;;;2.37;1.70;;;5.40;99.90;;;;;;5066214;28;20536;-72
2022/11/30 04:39:07;;;;;;;1.77;1.67;;;5.40;99.90;;;;;;5063774;28;20433;-72
2022/11/30 04:41:33;;;;;;;2.90;2.03;;;5.50;99.90;;;;;;5031636;28;20427;-72
2022/11/30 04:44:00;;;;;;;5.80;1.90;;;5.50;99.90;;;;;;5046693;28;20419;-72
2022/11/30 04:46:27;;;;;;;2.78;2.25;;;5.50;99.90;;;;;;5046650;28;20430;-71
2022/11/30 04:48:54;;;;;;;1.40;1.33;;;5.50;99.90;;;;;;5032732;28;20469;-72
2022/11/30 04:51:20;;;;;;;2.65;2.00;;;5.50;99.90;;;;;;5045100;28;20502;-72
2022/11/30 04:53:47;;;;;;;2.47;1.83;;;5.50;99.90;;;;;;5043981;28;20439;-72
2022/11/30 04:56:14;;;;;;;2.35;2.25;;;5.60;99.90;;;;;;5040435;28;20428;-72
2022/11/30 04:58:40;;;;;;;1.75;1.65;;;5.60;99.90;;;;;;5048064;28;20499;-72
2022/11/30 05:01:07;;;;;;;3.95;1.70;;;5.60;99.90;;;;;;5049626;28;20571;-71
2022/11/30 05:03:34;;;;;;;3.15;2.08;;;5.60;99.90;;;;;;5045219;28;21169;-72
2022/11/30 05:06:02;;;;;;;1.65;1.55;;;5.60;99.90;;;;;;5051266;28;20430;-72
2022/11/30 05:08:29;;;;;;;2.65;1.63;;;5.60;99.90;;;;;;5051793;28;20428;-72
2022/11/30 05:10:56;;;;;;;3.28;1.98;;;5.60;99.90;;;;;;5051018;28;20844;-72
2022/11/30 05:13:24;;;;;;;2.93;2.20;;;5.70;99.90;;;;;;5047374;28;20437;-72
2022/11/30 05:15:52;;;;;;;1.63;1.52;;;5.70;99.90;;;;;;5052192;28;20516;-72
2022/11/30 05:18:19;;;;;;;3.15;2.28;;;5.70;99.90;;;;;;5050691;28;21041;-73
2022/11/30 05:20:51;;;;;;;3.00;2.03;;;5.70;99.90;;;;;;5044961;28;20450;-72
2022/11/30 05:23:19;;;;;;;3.58;1.80;;;5.70;99.90;;;;;;5041439;28;20437;-72
2022/11/30 05:25:46;;;;;;;4.22;2.10;;;5.70;99.90;;;;;;5050307;28;20440;-72
2022/11/30 05:28:13;;;;;;;5.13;2.25;;;5.70;99.90;;;;;;5046242;28;20433;-72
2022/11/30 05:30:41;;;;;;;2.97;2.10;;;5.70;99.90;;;;;;5050817;28;20429;-73
2022/11/30 05:33:08;;;;;;;7.55;2.72;;;5.70;99.90;;;;;;5052097;28;20436;-72
2022/11/30 05:35:35;;;;;;;5.75;2.25;;;5.70;99.90;;;;;;5050568;28;20969;-72
2022/11/30 05:38:02;;;;;;;3.03;1.53;;;5.70;99.90;;;;;;5048436;28;21192;-73
2022/11/30 05:40:31;;;;;;;3.58;1.92;;;5.70;99.90;;;;;;5050967;28;20436;-73
2022/11/30 05:43:00;;;;;;;5.88;2.65;;;5.70;99.90;;;;;;5046380;28;20474;-73
2022/11/30 05:45:27;;;;;;;4.30;2.55;;;5.60;99.90;;;;;;5050440;28;20425;-73
2022/11/30 05:47:54;;;;;;;4.93;2.17;;;5.70;99.90;;;;;;5050480;28;20465;-72
2022/11/30 05:50:21;;;;;;;4.10;2.17;;;5.60;99.90;;;;;;5044253;28;20833;-73
2022/11/30 05:52:50;;;;;;;4.35;2.55;;;5.70;99.90;;;;;;5045818;28;20440;-73
2022/11/30 05:55:21;;;;;;;1.87;1.77;;;5.70;99.90;;;;;;5040831;28;20903;-73
2022/11/30 05:57:47;;;;;;;1.17;1.17;;;5.70;99.90;;;;;;5042371;28;20431;-73
2022/11/30 06:00:15;;;;;;;2.95;2.03;;;5.70;99.90;;;;;;5054037;28;20433;-73
2022/11/30 06:02:41;;;;;;;3.28;1.55;;;5.80;99.90;;;;;;5048722;28;20425;-73
2022/11/30 06:05:08;;;;;;;2.83;2.20;;;5.80;99.90;;;;;;5065793;28;20424;-73
2022/11/30 06:07:35;;;;;;;4.60;2.38;;;5.80;99.90;;;;;;5043079;28;20977;-73
2022/11/30 06:10:03;;;;;;;2.90;2.10;;;5.90;99.90;;;;;;5039643;28;20907;-73
2022/11/30 06:12:32;;;;;;;2.58;2.17;;;5.90;99.90;;;;;;5043880;28;20493;-73
2022/11/30 06:14:59;;;;;;;4.50;1.77;;;5.90;99.90;;;;;;5054050;28;20427;-73
2022/11/30 06:17:25;;;;;;;2.03;1.35;;;5.90;99.90;;;;;;5045356;28;20443;-73
2022/11/30 06:19:52;;;;;;;2.05;1.75;;;5.90;99.90;;;;;;5030646;28;20829;-73
2022/11/30 06:22:19;;;;;;;3.15;2.13;;;5.90;99.90;;;;;;5044282;28;20425;-73
2022/11/30 06:24:45;;;;;;;3.72;2.30;;;5.90;99.90;;;;;;5030827;28;20427;-72
2022/11/30 06:27:14;;;;;;;3.27;2.70;;;6.00;99.90;;;;;;5068662;28;20867;-72
2022/11/30 06:29:41;;;;;;;2.40;2.20;;;6.00;99.90;;;;;;5053898;28;20512;-73
2022/11/30 06:32:08;;;;;;;4.15;2.45;;;6.00;99.90;;;;;;5049797;28;20540;-72
2022/11/30 06:34:38;;;;;;;4.50;1.83;;;6.00;99.90;;;;;;5050510;28;20432;-72
2022/11/30 06:37:04;;;;;;;1.50;1.23;;;6.00;99.90;;;;;;5039002;28;20430;-72
2022/11/30 06:39:31;;;;;;;2.00;1.90;;;6.00;99.90;;;;;;5039579;28;20433;-72
2022/11/30 06:42:20;;;;;;;1.67;1.55;;;6.00;99.90;;;;;;5049934;28;20440;-72
2022/11/30 06:44:50;;;;;;;2.30;2.10;;;6.00;99.90;;;;;;5049612;28;20425;-72
2022/11/30 06:47:17;;;;;;;2.25;2.05;;;6.00;99.90;;;;;;5049899;28;21205;-72
2022/11/30 06:49:43;;;;;;;2.10;1.92;;;6.00;99.90;;;;;;5041697;28;20433;-72
2022/11/30 06:52:10;;;;;;;1.83;1.67;;;6.00;99.90;;;;;;5034084;28;20517;-72
2022/11/30 06:54:40;;;;;;;2.28;1.42;;;6.00;99.90;;;;;;5065060;28;20466;-72
2022/11/30 06:57:07;;;;;;;1.85;1.73;;;6.00;99.90;;;;;;5032192;28;20445;-72
2022/11/30 06:59:35;;;;;;;3.17;1.60;;;6.10;99.90;;;;;;5039266;28;20825;-72
2022/11/30 07:02:02;;;;;;;6.13;2.00;;;6.20;99.90;;;;;;5047050;28;20460;-72
2022/11/30 07:04:36;;;;;;;3.67;2.23;;;6.20;99.90;;;;;;5047809;28;20436;-72
2022/11/30 07:07:03;;;;;;;2.35;2.20;;;6.20;99.90;;;;;;5036046;28;20485;-73
2022/11/30 07:09:31;;;;;;;2.30;2.10;;;6.20;99.90;;;;;;5052198;28;20429;-73
2022/11/30 07:11:58;;;;;;;3.28;2.92;;;6.20;99.90;;;;;;5039214;28;20468;-72
2022/11/30 07:14:24;;;;;;;2.33;2.13;;;6.20;99.90;;;;;;5047087;28;20431;-72
2022/11/30 07:16:51;;;;;;;5.68;2.42;;;6.20;99.90;;;;;;5044166;28;20439;-72
2022/11/30 07:19:21;;;;;;;1.97;1.87;;;6.20;99.90;;;;;;5036183;28;20941;-72
2022/11/30 07:21:47;;;;;;;3.20;2.30;;;6.30;99.90;;;;;;5033382;28;20426;-72
2022/11/30 07:27:02;;;;;;;2.15;1.90;;;6.30;99.90;;;;;;5038609;28;20927;-72
2022/11/30 07:29:29;;;;;;;1.90;1.80;;;6.30;99.90;;;;;;5039675;28;20434;-72
2022/11/30 07:31:56;;;;;;;4.05;2.05;;;6.20;99.90;;;;;;5028326;28;20437;-72
2022/11/30 07:34:25;;;;;;;3.10;2.77;;;6.20;99.90;;;;;;5041798;28;20439;-72
2022/11/30 07:36:52;;;;;;;7.60;2.47;;;6.20;99.90;;;;;;5027653;28;20462;-72
2022/11/30 07:39:19;;;;;;;2.45;1.67;;;6.20;99.90;;;;;;5042435;28;20433;-72
2022/11/30 07:41:46;;;;;;;4.35;1.65;;;6.20;99.90;;;;;;5049075;28;20421;-72
2022/11/30 07:44:12;;;;;;;3.30;2.23;;;6.20;99.90;;;;;;5048069;28;20451;-72
2022/11/30 07:46:39;;;;;;;1.75;1.63;;;6.20;99.90;;;;;;5039746;28;20433;-72
2022/11/30 07:49:08;;;;;;;2.00;1.77;;;6.20;99.90;;;;;;5044100;28;20438;-72
2022/11/30 07:51:36;;;;;;;4.25;2.78;;;6.30;99.90;;;;;;5048817;28;20428;-72
2022/11/30 07:54:03;;;;;;;2.58;2.38;;;6.30;99.90;;;;;;5032380;28;20439;-72
2022/11/30 07:56:30;;;;;;;4.03;1.90;;;6.30;99.90;;;;;;5050177;28;20494;-72
2022/11/30 07:58:59;;;;;;;2.33;2.13;;;6.40;99.90;;;;;;5048087;28;20522;-72
2022/11/30 08:01:29;;;;;;;2.75;2.40;;;6.40;99.90;;;;;;5046455;28;20808;-72
2022/11/30 08:03:57;;;;;;;4.40;2.07;;;6.50;99.90;;;;;;5047984;28;20602;-72
2022/11/30 08:06:29;;;;;;;2.55;2.03;;;6.50;99.90;;;;;;5044413;28;20537;-72
2022/11/30 08:08:59;;;;;;;2.38;2.17;;;6.50;99.90;;;;;;5047123;28;20437;-72
2022/11/30 08:11:29;;;;;;;2.78;1.98;;;6.60;99.90;;;;;;5048603;28;20762;-72
2022/11/30 08:13:56;;;;;;;2.50;1.83;;;6.60;99.90;;;;;;5042487;28;20492;-72
2022/11/30 08:16:27;;;;;;;1.33;1.23;;;6.60;99.90;;;;;;5047741;28;20477;-73
2022/11/30 08:18:57;;;;;;;5.38;2.40;;;6.60;99.90;;;;;;5044503;28;20437;-73
2022/11/30 08:21:24;;;;;;;2.83;2.13;;;6.60;99.90;;;;;;5032529;28;20427;-73
2022/11/30 08:23:55;;;;;;;2.25;2.03;;;6.70;99.90;;;;;;5047131;28;20908;-73
2022/11/30 08:26:33;;;;;;;2.22;1.80;;;6.70;99.90;;;;;;5075823;28;20455;-73
2022/11/30 08:29:00;;;;;;;4.65;2.10;;;6.70;99.90;;;;;;5046411;28;20521;-73
2022/11/30 08:31:30;;;;;;;3.47;1.90;;;6.60;99.90;;;;;;5046514;28;20429;-73
2022/11/30 08:34:00;;;;;;;4.53;1.95;;;6.60;99.90;;;;;;5049496;28;20437;-73
2022/11/30 08:36:28;;;;;;;3.03;2.07;;;6.70;99.90;;;;;;5045267;28;20437;-73
2022/11/30 08:39:01;;;;;;;2.33;1.88;;;6.80;99.90;;;;;;5042512;28;20439;-73
2022/11/30 08:41:31;;;;;;;3.80;2.63;;;6.80;99.90;;;;;;5043721;28;20425;-73
2022/11/30 08:43:58;;;;;;;2.63;1.48;;;6.80;99.90;;;;;;5049444;28;20460;-73
2022/11/30 08:46:24;;;;;;;3.08;2.08;;;6.90;99.90;;;;;;5055590;28;20766;-73
2022/11/30 08:49:13;;;;;;;4.68;1.80;;;6.90;99.90;;;;;;5037833;28;20487;-73
2022/11/30 08:51:55;;;;;;;3.13;2.43;;;7.00;99.90;;;;;;5048740;28;20919;-73
2022/11/30 08:54:44;;;;;;;2.53;1.88;;;7.00;99.90;;;;;;5047327;28;20499;-73
2022/11/30 08:57:32;;;;;;;3.70;2.50;;;7.00;99.90;;;;;;5040039;28;20421;-73
2022/11/30 08:59:58;;;;;;;3.33;2.90;;;7.10;99.90;;;;;;5041474;28;20452;-73
2022/11/30 09:02:28;;;;;;;2.53;2.30;;;7.10;99.90;;;;;;5037642;28;20468;-73
2022/11/30 09:04:58;;;;;;;3.10;2.22;;;7.10;99.90;;;;;;5039428;28;20929;-73
2022/11/30 09:07:28;;;;;;;4.68;2.35;;;7.10;99.90;;;;;;5047169;28;21188;-73
2022/11/30 09:09:54;;;;;;;2.47;1.90;;;7.10;99.90;;;;;;5050837;28;20432;-73
2022/11/30 09:12:21;;;;;;;5.80;2.83;;;7.20;99.90;;;;;;5041601;28;20905;-72
2022/11/30 09:14:48;;;;;;;5.72;2.03;;;7.20;99.90;;;;;;5027075;28;20925;-72
2022/11/30 09:17:23;;;;;;;2.63;1.90;;;7.30;99.90;;;;;;5037526;28;20460;-72
2022/11/30 09:19:49;;;;;;;5.63;2.00;;;7.40;99.90;;;;;;5032708;28;20443;-71
2022/11/30 09:22:17;;;;;;;3.13;2.13;;;7.40;99.90;;;;;;5055338;28;20429;-71
2022/11/30 09:24:44;;;;;;;1.52;1.52;;;7.40;99.90;;;;;;5042812;28;20515;-71
2022/11/30 09:27:11;;;;;;;3.58;2.15;;;7.40;99.90;;;;;;5035141;28;20421;-71
2022/11/30 09:29:41;;;;;;;5.05;2.45;;;7.40;99.90;;;;;;5041619;28;20436;-71
2022/11/30 09:32:08;;;;;;;3.83;2.03;;;7.40;99.90;;;;;;5045353;28;20437;-71
2022/11/30 09:34:35;;;;;;;3.43;2.50;;;7.40;99.90;;;;;;5044473;28;20934;-71
2022/11/30 09:37:02;;;;;;;3.20;2.22;;;7.40;99.90;;;;;;5039662;28;20941;-71
2022/11/30 09:39:29;;;;;;;4.32;2.13;;;7.40;99.90;;;;;;5046936;28;20522;-71
2022/11/30 09:42:36;;;;;;;2.28;2.08;;;7.50;99.90;;;;;;5050481;28;21022;-73
2022/11/30 09:45:20;;;;;;;4.20;2.22;;;7.40;99.90;;;;;;5034791;28;20448;-69
2022/11/30 09:48:11;;;;;;;2.63;2.13;;;7.40;99.90;;;;;;5033749;28;20496;-69
2022/11/30 09:50:42;;;;;;;3.90;2.13;;;7.30;99.90;;;;;;5042085;28;20919;-69
2022/11/30 09:53:28;;;;;;;1.57;1.47;;;7.40;99.90;;;;;;5046461;28;20438;-69
2022/11/30 09:55:57;;;;;;;4.88;2.53;;;7.40;99.90;;;;;;5040349;28;20928;-69
2022/11/30 09:58:43;;;;;;;3.13;1.85;;;7.50;99.90;;;;;;5049243;28;21062;-69
2022/11/30 10:01:16;;;;;;;3.40;2.45;;;7.50;99.90;;;;;;5048082;28;21128;-69
2022/11/30 10:03:46;;;;;;;4.05;2.80;;;7.60;99.90;;;;;;5049665;28;20438;-69
2022/11/30 10:06:28;;;;;;;2.38;2.13;;;7.50;99.90;;;;;;5051661;28;20460;-69
2022/11/30 10:09:11;;;;;;;3.17;1.73;;;7.40;99.90;;;;;;5048560;28;20429;-69
2022/11/30 10:11:48;;;;;;;12.63;2.40;;;7.30;99.90;;;;;;5053342;28;20425;-69
2022/11/30 10:14:45;;;;;;;5.22;2.13;;;7.20;99.90;;;;;;5046599;28;20433;-69
2022/11/30 10:17:33;;;;;;;1.90;1.80;;;7.20;99.90;;;;;;5037342;28;20500;-69
2022/11/30 10:20:06;;;;;;;4.15;1.60;;;7.10;99.90;;;;;;5048546;28;20445;-69
2022/11/30 10:22:36;;;;;;;3.40;1.90;;;7.10;99.90;;;;;;5047408;28;20429;-69
2022/11/30 10:25:12;;;;;;;4.00;1.48;;;7.00;99.90;;;;;;5035951;28;20512;-69
2022/11/30 10:28:10;;;;;;;4.22;2.15;;;7.00;99.90;;;;;;5038242;28;20429;-69
2022/11/30 10:30:58;;;;;;;1.48;1.30;;;7.00;99.90;;;;;;5038632;28;20759;-70
2022/11/30 10:33:36;;;;;;;4.15;1.63;;;7.00;99.90;;;;;;5039236;28;20433;-69
2022/11/30 10:36:38;;;;;;;3.97;2.75;;;7.10;99.90;;;;;;5046939;28;20512;-69
2022/11/30 10:39:16;;;;;;;1.90;1.80;;;7.10;99.90;;;;;;5040758;28;20429;-69
2022/11/30 10:41:47;;;;;;;2.20;2.00;;;7.10;99.90;;;;;;5043979;28;20900;-70
2022/11/30 10:44:30;;;;;;;2.47;2.28;;;7.20;99.90;;;;;;5041550;28;20483;-70
2022/11/30 10:46:59;;;;;;;2.65;1.92;;;7.30;99.90;;;;;;5041206;28;20430;-70
2022/11/30 10:49:28;;;;;;;3.08;2.00;;;7.40;99.90;;;;;;5038324;28;20429;-73
2022/11/30 10:52:00;;;;;;;2.25;1.73;;;7.40;99.90;;;;;;5047483;28;20433;-74
2022/11/30 10:54:29;;;;;;;1.73;1.60;;;7.30;99.90;;;;;;5041517;28;20429;-72
2022/11/30 10:57:00;;;;;;;4.05;1.90;;;7.40;99.90;;;;;;5046112;28;20489;-70
2022/11/30 10:59:46;;;;;;;4.82;2.22;;;7.40;99.90;;;;;;5040433;28;20433;-72
2022/11/30 11:02:35;;;;;;;4.00;2.58;;;7.40;99.90;;;;;;5039542;28;21203;-69
2022/11/30 11:05:23;;;;;;;1.92;1.73;;;7.50;99.90;;;;;;5042150;28;20436;-70
2022/11/30 11:07:50;;;;;;;2.55;2.35;;;7.70;99.90;;;;;;5034801;28;20436;-70
2022/11/30 11:10:20;;;;;;;2.57;2.37;;;7.80;99.90;;;;;;5036534;28;21190;-70
2022/11/30 11:12:52;;;;;;;2.30;2.10;;;7.80;99.90;;;;;;5035902;28;20959;-70
2022/11/30 11:15:21;;;;;;;1.63;1.47;;;7.80;99.90;;;;;;5037927;28;20435;-70
2022/11/30 11:17:48;;;;;;;1.92;1.83;;;7.80;99.90;;;;;;5032840;28;20435;-70
2022/11/30 11:20:41;;;;;;;3.50;2.10;;;7.80;99.90;;;;;;5038836;28;20896;-70
2022/11/30 11:23:41;;;;;;;4.07;2.17;;;7.80;99.90;;;;;;5045852;28;20452;-70
2022/11/30 11:26:21;;;;;;;2.08;1.98;;;7.60;99.90;;;;;;5034249;28;20440;-70
2022/11/30 11:28:51;;;;;;;2.60;2.40;;;7.40;99.90;;;;;;5038228;28;20475;-70
2022/11/30 11:31:33;;;;;;;2.17;1.98;;;7.40;99.90;;;;;;5046105;28;20437;-70
2022/11/30 11:34:01;;;;;;;3.22;2.15;;;7.30;99.90;;;;;;5049440;28;21001;-70
2022/11/30 11:36:35;;;;;;;2.33;1.60;;;7.30;99.90;;;;;;5044027;28;21015;-70
2022/11/30 11:39:07;;;;;;;4.80;2.30;;;7.30;99.90;;;;;;5049530;28;20439;-70
2022/11/30 11:41:36;;;;;;;3.07;2.40;;;7.40;99.90;;;;;;5042668;28;20437;-70
2022/11/30 11:44:03;;;;;;;1.77;1.67;;;7.40;99.90;;;;;;5041673;28;20429;-70
2022/11/30 11:46:32;;;;;;;1.48;1.38;;;7.40;99.90;;;;;;5049659;28;20989;-70
2022/11/30 11:49:03;;;;;;;3.22;2.33;;;7.40;99.90;;;;;;5046032;28;20474;-70
2022/11/30 11:51:36;;;;;;;2.83;2.22;;;7.50;99.90;;;;;;5041776;28;20437;-70
2022/11/30 11:54:22;;;;;;;3.33;1.80;;;7.70;99.90;;;;;;5043642;28;20437;-70
2022/11/30 11:56:49;;;;;;;2.30;2.10;;;7.80;99.90;;;;;;5045012;28;20440;-70
2022/11/30 11:59:38;;;;;;;3.10;2.47;;;7.70;99.90;;;;;;5050545;28;20442;-70
2022/11/30 12:02:17;;;;;;;2.83;2.60;;;7.80;99.90;;;;;;5050022;28;20441;-70
2022/11/30 12:04:58;;;;;;;3.47;2.70;;;7.70;99.90;;;;;;5045502;28;20840;-75
2022/11/30 12:07:37;;;;;;;3.47;2.67;;;7.70;99.90;;;;;;5050680;28;20433;-71
2022/11/30 12:10:28;;;;;;;4.25;2.90;;;7.90;99.90;;;;;;5047482;28;20442;-71
2022/11/30 12:13:28;;;;;;;3.85;2.53;;;8.00;99.90;;;;;;5052092;28;20424;-71
2022/11/30 12:16:15;;;;;;;3.45;2.55;;;8.00;99.90;;;;;;5039466;28;21196;-71
2022/11/30 12:19:20;;;;;;;2.92;2.00;;;8.10;99.90;;;;;;5046263;28;20482;-71
2022/11/30 12:22:06;;;;;;;2.05;1.90;;;8.10;99.90;;;;;;5047258;28;20433;-71
2022/11/30 12:24:33;;;;;;;5.60;2.33;;;8.10;99.90;;;;;;5051330;28;20440;-71
2022/11/30 12:27:18;;;;;;;3.22;2.78;;;8.10;99.90;;;;;;5042539;28;20450;-71
2022/11/30 12:30:05;;;;;;;2.58;2.38;;;8.20;99.90;;;;;;5049904;28;20435;-70
2022/11/30 12:32:58;;;;;;;5.60;2.78;;;8.30;99.90;;;;;;5041764;28;20522;-70
2022/11/30 12:35:50;;;;;;;2.75;1.88;;;8.40;99.90;;;;;;5046293;28;20433;-71
2022/11/30 12:38:24;;;;;;;5.07;3.30;;;8.40;99.90;;;;;;5054400;28;20429;-69
2022/11/30 12:41:29;;;;;;;3.50;2.40;;;8.50;99.90;;;;;;5044267;28;20503;-70
2022/11/30 12:44:14;;;;;;;3.85;2.33;;;8.60;99.90;;;;;;5037647;28;20435;-69
2022/11/30 12:47:24;;;;;;;4.50;2.28;;;8.60;99.90;;;;;;5045684;28;20429;-70
2022/11/30 12:50:00;;;;;;;2.80;2.60;;;8.60;99.90;;;;;;5043358;28;20432;-70
2022/11/30 12:53:04;;;;;;;3.20;2.95;;;8.50;99.90;;;;;;5039718;28;20512;-70
2022/11/30 12:55:33;;;;;;;7.57;3.13;;;8.30;99.90;;;;;;5039850;28;20437;-70
2022/11/30 12:58:22;;;;;;;5.83;3.57;;;8.40;99.90;;;;;;5037595;28;20529;-70
2022/11/30 13:00:51;;;;;;;4.90;2.83;;;8.50;99.90;;;;;;5045427;28;20904;-70
2022/11/30 13:03:40;;;;;;;6.47;3.38;;;8.70;99.90;;;;;;5037627;28;20441;-70
2022/11/30 13:06:20;;;;;;;3.10;2.50;;;8.90;99.90;;;;;;5042373;28;20433;-70
2022/11/30 13:09:05;;;;;;;5.75;2.92;;;8.90;99.90;;;;;;5045291;28;20485;-70
2022/11/30 13:11:46;;;;;;;4.95;3.08;;;8.90;99.90;;;;;;5040222;28;20519;-70
2022/11/30 13:14:21;;;;;;;6.32;3.45;;;8.90;99.90;;;;;;5046642;28;20832;-70
2022/11/30 13:16:55;;;;;;;4.77;2.73;;;8.90;99.90;;;;;;5048927;28;20437;-70
2022/11/30 13:20:07;;;;;;;5.05;2.75;;;8.90;99.90;;;;;;5044924;28;20495;-70
2022/11/30 13:22:49;;;;;;;3.40;2.92;;;8.90;99.90;;;;;;5037038;28;20993;-70
2022/11/30 13:25:44;;;;;;;1.70;1.58;;;8.90;99.90;;;;;;5042211;28;20462;-70
2022/11/30 13:28:40;;;;;;;4.93;3.47;;;8.90;99.90;;;;;;5044837;28;20417;-70